sensor_id;sensor_type;location;lat;lon;timestamp;pressure;altitude;pressure_sealevel;temperature;humidity
36788;BME280;22738;45.560;9.434;2022-11-15T00:04:22;100307.03;;;7.51;100.00
36788;BME280;22738;45.560;9.434;2022-11-15T00:11:21;100300.81;;;7.37;100.00
36788;BME280;22738;45.560;9.434;2022-11-15T00:18:21;100278.50;;;7.15;100.00
36788;BME280;22738;45.560;9.434;2022-11-15T00:25:20;100283.41;;;7.22;100.00
36788;BME280;22738;45.560;9.434;2022-11-15T00:32:20;100263.19;;;7.12;100.00
36788;BME280;22738;45.560;9.434;2022-11-15T00:39:19;100261.25;;;6.97;100.00
36788;BME280;22738;45.560;9.434;2022-11-15T00:46:19;100247.75;;;6.92;100.00
36788;BME280;22738;45.560;9.434;2022-11-15T00:53:18;100248.63;;;6.91;100.00
36788;BME280;22738;45.560;9.434;2022-11-15T01:00:18;100260.81;;;7.08;100.00
36788;BME280;22738;45.560;9.434;2022-11-15T01:07:17;100257.13;;;7.13;100.00
36788;BME280;22738;45.560;9.434;2022-11-15T01:14:16;100258.56;;;7.00;100.00
36788;BME280;22738;45.560;9.434;2022-11-15T01:21:18;100244.78;;;7.01;100.00
36788;BME280;22738;45.560;9.434;2022-11-15T01:28:18;100241.44;;;6.99;100.00
36788;BME280;22738;45.560;9.434;2022-11-15T01:35:17;100226.22;;;6.93;100.00
36788;BME280;22738;45.560;9.434;2022-11-15T01:42:17;100217.84;;;6.88;100.00
36788;BME280;22738;45.560;9.434;2022-11-15T01:49:21;100192.47;;;6.59;100.00
36788;BME280;22738;45.560;9.434;2022-11-15T01:56:27;100193.84;;;6.68;100.00
36788;BME280;22738;45.560;9.434;2022-11-15T02:03:36;100202.84;;;6.78;100.00
36788;BME280;22738;45.560;9.434;2022-11-15T02:10:39;100219.66;;;6.86;100.00
36788;BME280;22738;45.560;9.434;2022-11-15T02:25:45;100196.22;;;6.72;100.00
36788;BME280;22738;45.560;9.434;2022-11-15T02:32:44;100181.59;;;6.53;100.00
36788;BME280;22738;45.560;9.434;2022-11-15T02:39:57;100167.75;;;6.55;100.00
36788;BME280;22738;45.560;9.434;2022-11-15T02:47:05;100163.34;;;6.59;100.00
36788;BME280;22738;45.560;9.434;2022-11-15T02:54:21;100164.31;;;6.75;100.00
36788;BME280;22738;45.560;9.434;2022-11-15T03:16:03;100156.56;;;6.76;100.00
36788;BME280;22738;45.560;9.434;2022-11-15T03:23:05;100155.13;;;6.69;100.00
36788;BME280;22738;45.560;9.434;2022-11-15T03:30:07;100117.56;;;6.45;100.00
36788;BME280;22738;45.560;9.434;2022-11-15T03:37:09;100127.41;;;6.35;100.00
36788;BME280;22738;45.560;9.434;2022-11-15T03:44:31;100129.91;;;6.57;100.00
36788;BME280;22738;45.560;9.434;2022-11-15T03:51:37;100138.16;;;6.84;100.00
36788;BME280;22738;45.560;9.434;2022-11-15T03:58:37;100128.59;;;6.87;100.00
36788;BME280;22738;45.560;9.434;2022-11-15T04:05:36;100114.22;;;6.63;100.00
36788;BME280;22738;45.560;9.434;2022-11-15T04:12:41;100117.16;;;6.74;100.00
36788;BME280;22738;45.560;9.434;2022-11-15T04:19:42;100106.25;;;6.88;100.00
36788;BME280;22738;45.560;9.434;2022-11-15T04:27:00;100091.81;;;7.02;100.00
36788;BME280;22738;45.560;9.434;2022-11-15T04:34:00;100089.19;;;7.04;100.00
36788;BME280;22738;45.560;9.434;2022-11-15T04:41:00;100085.41;;;7.11;100.00
36788;BME280;22738;45.560;9.434;2022-11-15T04:48:01;100078.81;;;7.24;100.00
36788;BME280;22738;45.560;9.434;2022-11-15T04:55:01;100078.16;;;7.38;100.00
36788;BME280;22738;45.560;9.434;2022-11-15T05:02:00;100067.69;;;7.41;100.00
36788;BME280;22738;45.560;9.434;2022-11-15T05:08:59;100060.31;;;7.52;100.00
36788;BME280;22738;45.560;9.434;2022-11-15T05:15:59;100056.66;;;7.56;100.00
36788;BME280;22738;45.560;9.434;2022-11-15T05:22:58;100050.75;;;7.71;100.00
36788;BME280;22738;45.560;9.434;2022-11-15T05:29:58;100053.66;;;7.82;100.00
36788;BME280;22738;45.560;9.434;2022-11-15T05:36:59;100045.94;;;7.99;100.00
36788;BME280;22738;45.560;9.434;2022-11-15T05:43:59;100052.28;;;8.09;100.00
36788;BME280;22738;45.560;9.434;2022-11-15T05:51:01;100053.03;;;8.11;100.00
36788;BME280;22738;45.560;9.434;2022-11-15T05:58:02;100066.56;;;8.16;100.00
36788;BME280;22738;45.560;9.434;2022-11-15T06:05:02;100064.72;;;8.18;100.00
36788;BME280;22738;45.560;9.434;2022-11-15T06:12:02;100069.59;;;8.24;100.00
36788;BME280;22738;45.560;9.434;2022-11-15T06:19:01;100078.75;;;8.31;100.00
36788;BME280;22738;45.560;9.434;2022-11-15T06:26:02;100087.91;;;8.37;100.00
36788;BME280;22738;45.560;9.434;2022-11-15T06:33:04;100086.91;;;8.39;100.00
36788;BME280;22738;45.560;9.434;2022-11-15T06:40:05;100075.84;;;8.37;100.00
36788;BME280;22738;45.560;9.434;2022-11-15T06:47:04;100078.28;;;8.40;100.00
36788;BME280;22738;45.560;9.434;2022-11-15T06:54:04;100093.69;;;8.42;100.00
36788;BME280;22738;45.560;9.434;2022-11-15T07:01:07;100096.19;;;8.43;100.00
36788;BME280;22738;45.560;9.434;2022-11-15T07:08:07;100100.44;;;8.44;100.00
36788;BME280;22738;45.560;9.434;2022-11-15T07:15:09;100095.09;;;8.47;100.00
36788;BME280;22738;45.560;9.434;2022-11-15T07:22:09;100106.97;;;8.51;100.00
36788;BME280;22738;45.560;9.434;2022-11-15T07:29:09;100094.50;;;8.59;100.00
36788;BME280;22738;45.560;9.434;2022-11-15T07:36:09;100111.34;;;8.67;100.00
36788;BME280;22738;45.560;9.434;2022-11-15T07:43:10;100096.34;;;8.73;100.00
36788;BME280;22738;45.560;9.434;2022-11-15T07:50:10;100091.69;;;8.80;100.00
36788;BME280;22738;45.560;9.434;2022-11-15T07:57:09;100103.16;;;8.91;100.00
36788;BME280;22738;45.560;9.434;2022-11-15T08:04:10;100102.41;;;9.05;100.00
36788;BME280;22738;45.560;9.434;2022-11-15T08:11:10;100099.19;;;9.17;100.00
36788;BME280;22738;45.560;9.434;2022-11-15T08:18:12;100086.75;;;9.23;100.00
36788;BME280;22738;45.560;9.434;2022-11-15T08:25:12;100086.06;;;9.20;100.00
36788;BME280;22738;45.560;9.434;2022-11-15T08:32:12;100080.44;;;9.29;100.00
36788;BME280;22738;45.560;9.434;2022-11-15T08:39:11;100075.81;;;9.50;100.00
36788;BME280;22738;45.560;9.434;2022-11-15T08:46:14;100063.13;;;9.45;100.00
36788;BME280;22738;45.560;9.434;2022-11-15T08:53:13;100061.34;;;9.61;100.00
36788;BME280;22738;45.560;9.434;2022-11-15T09:00:13;100059.34;;;9.66;100.00
36788;BME280;22738;45.560;9.434;2022-11-15T09:07:15;100071.03;;;9.73;100.00
36788;BME280;22738;45.560;9.434;2022-11-15T09:14:18;100065.97;;;9.86;100.00
36788;BME280;22738;45.560;9.434;2022-11-15T09:21:18;100062.59;;;9.99;100.00
36788;BME280;22738;45.560;9.434;2022-11-15T09:28:18;100057.47;;;10.14;100.00
36788;BME280;22738;45.560;9.434;2022-11-15T09:35:18;100061.00;;;10.27;100.00
36788;BME280;22738;45.560;9.434;2022-11-15T09:49:32;100071.34;;;10.42;100.00
36788;BME280;22738;45.560;9.434;2022-11-15T09:56:33;100068.19;;;10.51;100.00
36788;BME280;22738;45.560;9.434;2022-11-15T10:03:20;100071.25;;;10.58;100.00
36788;BME280;22738;45.560;9.434;2022-11-15T10:10:15;100069.41;;;10.60;100.00
36788;BME280;22738;45.560;9.434;2022-11-15T10:23:58;100042.19;;;10.53;100.00
36788;BME280;22738;45.560;9.434;2022-11-15T10:30:51;100044.03;;;10.51;100.00
36788;BME280;22738;45.560;9.434;2022-11-15T10:37:45;100038.09;;;10.49;100.00
36788;BME280;22738;45.560;9.434;2022-11-15T10:44:29;100027.75;;;10.49;100.00
36788;BME280;22738;45.560;9.434;2022-11-15T10:51:20;100024.59;;;10.58;100.00
36788;BME280;22738;45.560;9.434;2022-11-15T11:05:02;99990.69;;;10.61;100.00
36788;BME280;22738;45.560;9.434;2022-11-15T11:11:46;99980.44;;;10.59;100.00
36788;BME280;22738;45.560;9.434;2022-11-15T11:18:38;99988.19;;;10.73;100.00
36788;BME280;22738;45.560;9.434;2022-11-15T11:26:05;99966.16;;;10.66;100.00
36788;BME280;22738;45.560;9.434;2022-11-15T11:32:52;99942.16;;;10.77;100.00
36788;BME280;22738;45.560;9.434;2022-11-15T11:54:05;99926.72;;;10.75;100.00
36788;BME280;22738;45.560;9.434;2022-11-15T12:00:51;99923.09;;;10.78;100.00
36788;BME280;22738;45.560;9.434;2022-11-15T12:07:34;99900.88;;;10.74;100.00
36788;BME280;22738;45.560;9.434;2022-11-15T12:14:56;99894.91;;;10.86;100.00
36788;BME280;22738;45.560;9.434;2022-11-15T12:21:51;99892.25;;;10.88;100.00
36788;BME280;22738;45.560;9.434;2022-11-15T12:28:43;99881.94;;;10.86;100.00
36788;BME280;22738;45.560;9.434;2022-11-15T12:35:41;99866.78;;;10.80;100.00
36788;BME280;22738;45.560;9.434;2022-11-15T13:03:17;99840.06;;;10.65;100.00
36788;BME280;22738;45.560;9.434;2022-11-15T13:09:58;99825.16;;;10.69;100.00
36788;BME280;22738;45.560;9.434;2022-11-15T13:16:41;99819.16;;;10.68;100.00
36788;BME280;22738;45.560;9.434;2022-11-15T13:23:22;99806.09;;;10.70;100.00
36788;BME280;22738;45.560;9.434;2022-11-15T13:30:04;99795.28;;;10.63;100.00
36788;BME280;22738;45.560;9.434;2022-11-15T13:36:46;99806.09;;;10.70;100.00
36788;BME280;22738;45.560;9.434;2022-11-15T13:43:36;99778.56;;;10.55;100.00
36788;BME280;22738;45.560;9.434;2022-11-15T13:50:20;99776.84;;;10.68;100.00
36788;BME280;22738;45.560;9.434;2022-11-15T13:57:23;99780.56;;;10.64;100.00
36788;BME280;22738;45.560;9.434;2022-11-15T14:04:12;99769.78;;;10.70;100.00
36788;BME280;22738;45.560;9.434;2022-11-15T14:11:24;99759.84;;;10.64;100.00
36788;BME280;22738;45.560;9.434;2022-11-15T14:25:52;99743.44;;;10.63;100.00
36788;BME280;22738;45.560;9.434;2022-11-15T14:32:46;99745.97;;;10.65;100.00
36788;BME280;22738;45.560;9.434;2022-11-15T14:39:27;99732.06;;;10.66;100.00
36788;BME280;22738;45.560;9.434;2022-11-15T14:46:08;99733.06;;;10.51;100.00
36788;BME280;22738;45.560;9.434;2022-11-15T14:52:52;99726.22;;;10.50;100.00
36788;BME280;22738;45.560;9.434;2022-11-15T14:59:33;99726.56;;;10.58;100.00
36788;BME280;22738;45.560;9.434;2022-11-15T15:06:14;99732.03;;;10.53;100.00
36788;BME280;22738;45.560;9.434;2022-11-15T15:12:55;99717.63;;;10.49;100.00
36788;BME280;22738;45.560;9.434;2022-11-15T15:19:38;99721.84;;;10.50;100.00
36788;BME280;22738;45.560;9.434;2022-11-15T15:26:20;99711.38;;;10.39;100.00
36788;BME280;22738;45.560;9.434;2022-11-15T15:33:04;99697.56;;;10.39;100.00
36788;BME280;22738;45.560;9.434;2022-11-15T15:39:45;99694.25;;;10.37;100.00
36788;BME280;22738;45.560;9.434;2022-11-15T15:46:26;99691.13;;;10.32;100.00
36788;BME280;22738;45.560;9.434;2022-11-15T15:53:08;99684.31;;;10.31;100.00
36788;BME280;22738;45.560;9.434;2022-11-15T15:59:52;99675.88;;;10.27;100.00
36788;BME280;22738;45.560;9.434;2022-11-15T16:06:40;99677.63;;;10.27;100.00
36788;BME280;22738;45.560;9.434;2022-11-15T16:13:27;99667.38;;;10.13;100.00
36788;BME280;22738;45.560;9.434;2022-11-15T16:20:34;99674.19;;;10.14;100.00
36788;BME280;22738;45.560;9.434;2022-11-15T16:27:20;99663.25;;;10.08;100.00
36788;BME280;22738;45.560;9.434;2022-11-15T16:34:02;99665.97;;;10.07;100.00
36788;BME280;22738;45.560;9.434;2022-11-15T16:40:44;99666.22;;;10.17;100.00
36788;BME280;22738;45.560;9.434;2022-11-15T16:47:25;99657.94;;;10.12;100.00
36788;BME280;22738;45.560;9.434;2022-11-15T16:54:07;99656.06;;;10.14;100.00
36788;BME280;22738;45.560;9.434;2022-11-15T17:00:54;99659.38;;;10.16;100.00
36788;BME280;22738;45.560;9.434;2022-11-15T17:07:35;99654.41;;;10.13;100.00
36788;BME280;22738;45.560;9.434;2022-11-15T17:14:16;99639.22;;;10.06;100.00
36788;BME280;22738;45.560;9.434;2022-11-15T17:27:46;99656.84;;;10.01;100.00
36788;BME280;22738;45.560;9.434;2022-11-15T17:34:29;99651.66;;;10.01;100.00
36788;BME280;22738;45.560;9.434;2022-11-15T17:41:14;99650.00;;;10.00;100.00
36788;BME280;22738;45.560;9.434;2022-11-15T17:47:58;99656.63;;;10.04;100.00
36788;BME280;22738;45.560;9.434;2022-11-15T17:54:39;99641.63;;;10.10;100.00
36788;BME280;22738;45.560;9.434;2022-11-15T18:01:23;99644.19;;;9.97;100.00
36788;BME280;22738;45.560;9.434;2022-11-15T18:08:06;99637.03;;;10.00;100.00
36788;BME280;22738;45.560;9.434;2022-11-15T18:14:49;99629.91;;;10.04;100.00
36788;BME280;22738;45.560;9.434;2022-11-15T18:21:30;99629.28;;;10.00;100.00
36788;BME280;22738;45.560;9.434;2022-11-15T18:28:13;99617.25;;;9.99;100.00
36788;BME280;22738;45.560;9.434;2022-11-15T18:34:54;99617.47;;;9.96;100.00
36788;BME280;22738;45.560;9.434;2022-11-15T18:41:38;99614.66;;;9.99;100.00
36788;BME280;22738;45.560;9.434;2022-11-15T18:48:21;99600.78;;;10.00;100.00
36788;BME280;22738;45.560;9.434;2022-11-15T18:55:03;99598.63;;;9.94;100.00
36788;BME280;22738;45.560;9.434;2022-11-15T19:01:45;99579.75;;;9.92;100.00
36788;BME280;22738;45.560;9.434;2022-11-15T19:08:27;99581.81;;;9.87;100.00
36788;BME280;22738;45.560;9.434;2022-11-15T19:15:09;99580.50;;;9.94;100.00
36788;BME280;22738;45.560;9.434;2022-11-15T19:21:52;99591.75;;;9.93;100.00
36788;BME280;22738;45.560;9.434;2022-11-15T19:28:34;99577.91;;;9.94;100.00
36788;BME280;22738;45.560;9.434;2022-11-15T19:35:15;99572.50;;;9.97;100.00
36788;BME280;22738;45.560;9.434;2022-11-15T19:41:56;99572.44;;;9.99;100.00
36788;BME280;22738;45.560;9.434;2022-11-15T19:48:37;99574.19;;;9.98;100.00
36788;BME280;22738;45.560;9.434;2022-11-15T19:55:21;99561.13;;;10.00;100.00
36788;BME280;22738;45.560;9.434;2022-11-15T20:02:02;99556.97;;;9.97;100.00
36788;BME280;22738;45.560;9.434;2022-11-15T20:08:44;99554.31;;;9.99;100.00
36788;BME280;22738;45.560;9.434;2022-11-15T20:15:26;99544.97;;;9.96;100.00
36788;BME280;22738;45.560;9.434;2022-11-15T20:22:07;99529.81;;;9.90;100.00
36788;BME280;22738;45.560;9.434;2022-11-15T20:28:48;99504.88;;;9.89;100.00
36788;BME280;22738;45.560;9.434;2022-11-15T20:35:29;99520.94;;;9.94;100.00
36788;BME280;22738;45.560;9.434;2022-11-15T20:42:10;99504.47;;;9.95;100.00
36788;BME280;22738;45.560;9.434;2022-11-15T20:48:51;99519.91;;;10.10;100.00
36788;BME280;22738;45.560;9.434;2022-11-15T20:55:33;99515.88;;;10.05;100.00
36788;BME280;22738;45.560;9.434;2022-11-15T21:02:18;99496.50;;;9.98;100.00
36788;BME280;22738;45.560;9.434;2022-11-15T21:08:59;99502.94;;;10.05;100.00
36788;BME280;22738;45.560;9.434;2022-11-15T21:15:59;99498.28;;;10.11;100.00
36788;BME280;22738;45.560;9.434;2022-11-15T21:22:40;99498.38;;;10.09;100.00
36788;BME280;22738;45.560;9.434;2022-11-15T21:29:41;99468.13;;;10.10;100.00
36788;BME280;22738;45.560;9.434;2022-11-15T21:36:28;99454.47;;;10.07;100.00
36788;BME280;22738;45.560;9.434;2022-11-15T21:43:09;99455.38;;;10.06;100.00
36788;BME280;22738;45.560;9.434;2022-11-15T21:49:50;99443.91;;;10.11;100.00
36788;BME280;22738;45.560;9.434;2022-11-15T21:56:31;99443.91;;;10.11;100.00
36788;BME280;22738;45.560;9.434;2022-11-15T22:03:13;99429.50;;;10.06;100.00
36788;BME280;22738;45.560;9.434;2022-11-15T22:09:57;99418.41;;;10.04;100.00
36788;BME280;22738;45.560;9.434;2022-11-15T22:16:39;99414.06;;;10.05;100.00
36788;BME280;22738;45.560;9.434;2022-11-15T22:23:21;99402.47;;;10.11;100.00
36788;BME280;22738;45.560;9.434;2022-11-15T22:30:06;99397.31;;;10.11;100.00
36788;BME280;22738;45.560;9.434;2022-11-15T22:36:50;99398.13;;;10.11;100.00
36788;BME280;22738;45.560;9.434;2022-11-15T22:43:36;99393.97;;;10.08;100.00
36788;BME280;22738;45.560;9.434;2022-11-15T22:50:27;99380.94;;;10.10;100.00
36788;BME280;22738;45.560;9.434;2022-11-15T22:57:14;99373.09;;;10.12;100.00
36788;BME280;22738;45.560;9.434;2022-11-15T23:03:55;99354.41;;;10.06;100.00
36788;BME280;22738;45.560;9.434;2022-11-15T23:10:37;99354.13;;;10.11;100.00
36788;BME280;22738;45.560;9.434;2022-11-15T23:17:40;99330.38;;;10.04;100.00
36788;BME280;22738;45.560;9.434;2022-11-15T23:24:31;99319.00;;;10.07;100.00
36788;BME280;22738;45.560;9.434;2022-11-15T23:31:14;99308.44;;;10.10;100.00
36788;BME280;22738;45.560;9.434;2022-11-15T23:38:15;99299.94;;;10.08;100.00
36788;BME280;22738;45.560;9.434;2022-11-15T23:44:58;99299.13;;;10.07;100.00
36788;BME280;22738;45.560;9.434;2022-11-15T23:51:39;99286.16;;;10.07;100.00
36788;BME280;22738;45.560;9.434;2022-11-15T23:58:21;99279.31;;;10.06;100.00
